Eastern Galaxy — DUCH — position and weather

sailwx.info

Track history (hours):
 
Tides and Currents Weather Stations Pressure Air Temp Water Temp Dewpoint Dewpoint Depression Visibility Wind Speed Wind Dir Waves Ship Positions

Eastern Galaxy

Last reported at 2015-Feb-22 02:32 UTC. Time now 2015-Mar-03 03:14 UTC.
Position N 35°05' E 139°42'.
Warning: this ship's position is 9 days out of date.

Length 100 m; draft 6.5 m.

Type: Cargo ship. MMSI: 548829000.

Date/timePositionNaut miles runAvg speedWind from/ knotsBaromVisibWave heightAir tempDewpointWater temp
2015-Feb-22 02:32N 35°05' E 139°42'1010.7
2015-Feb-22 01:33N 35°15' E 139°46'1010.4
2015-Feb-22 00:33N 35°25' E 139°42'3 2.5
2015-Feb-21 23:31N 35°27' E 139°41'0 0.0
2015-Feb-21 22:31N 35°27' E 139°41'0 0.0
2015-Feb-21 21:31N 35°27' E 139°41'0 0.0
2015-Feb-21 20:31N 35°27' E 139°41'0 0.0
2015-Feb-21 19:31N 35°27' E 139°41'0 0.0
2015-Feb-21 18:31N 35°27' E 139°41'0 0.0
2015-Feb-21 17:31N 35°27' E 139°41'0 0.0
2015-Feb-21 16:31N 35°27' E 139°41'0 0.0
2015-Feb-21 15:31N 35°27' E 139°41'0 0.0
2015-Feb-21 14:31N 35°27' E 139°41'0 0.0
2015-Feb-21 13:31N 35°27' E 139°41'0 0.0
2015-Feb-21 12:31N 35°27' E 139°41'0 0.0
2015-Feb-21 11:31N 35°27' E 139°41'0 0.0
2015-Feb-21 10:31N 35°27' E 139°41'0 0.0
2015-Feb-21 09:31N 35°27' E 139°41'0 0.0
2015-Feb-21 08:31N 35°27' E 139°41'0 0.0
2015-Feb-21 07:31N 35°27' E 139°41'0 0.0
2015-Feb-21 06:31N 35°27' E 139°41'0 0.0
2015-Feb-21 05:31N 35°27' E 139°41'0 0.0
2015-Feb-21 04:31N 35°27' E 139°41'0 0.0
2015-Feb-21 03:31N 35°27' E 139°41'0 0.0
2015-Feb-21 02:31N 35°27' E 139°41'0 0.0
2015-Feb-21 01:31N 35°27' E 139°41'0 0.0
2015-Feb-21 00:31N 35°27' E 139°41'0 0.0
2015-Feb-20 23:31N 35°27' E 139°41'0 0.0
2015-Feb-20 22:31N 35°27' E 139°41'1 1.5
2015-Feb-20 21:34N 35°26' E 139°42'1 1.0
2015-Feb-20 20:32N 35°25' E 139°42'0 0.0
2015-Feb-20 19:32N 35°25' E 139°42'0 0.0
2015-Feb-20 18:29N 35°25' E 139°42'0 0.1
2015-Feb-20 17:32N 35°25' E 139°42'0 0.0
2015-Feb-20 16:32N 35°25' E 139°42'0 0.0
2015-Feb-20 15:32N 35°25' E 139°42'0 0.0
2015-Feb-20 14:32N 35°25' E 139°42'0 0.0
2015-Feb-20 13:32N 35°25' E 139°42'1 0.9
2015-Feb-20 12:33N 35°25' E 139°43'8 8.3
2015-Feb-20 11:33N 35°17' E 139°46'1010.1
2015-Feb-20 10:33N 35°07' E 139°46'9 8.8
2015-Feb-20 09:34N 34°59' E 139°42'  
Track history (hours):
 
Tides and Currents Weather Stations Pressure Air Temp Water Temp Dewpoint Dewpoint Depression Visibility Wind Speed Wind Dir Waves Ship Positions

Eastern Galaxy

Last reported at 2015-Feb-22 02:32 UTC. Time now 2015-Mar-03 03:14 UTC.
Position N 35°05' E 139°42'.
Warning: this ship's position is 9 days out of date.

Length 100 m; draft 6.5 m.

Type: Cargo ship. MMSI: 548829000.

Date/timePositionNaut miles runAvg speedWind from/ knotsBaromVisibWave heightAir tempDewpointWater temp
2015-Feb-22 02:32N 35°05' E 139°42'1010.7
2015-Feb-22 01:33N 35°15' E 139°46'1010.4
2015-Feb-22 00:33N 35°25' E 139°42'3 2.5
2015-Feb-21 23:31N 35°27' E 139°41'0 0.0
2015-Feb-21 22:31N 35°27' E 139°41'0 0.0
2015-Feb-21 21:31N 35°27' E 139°41'0 0.0
2015-Feb-21 20:31N 35°27' E 139°41'0 0.0
2015-Feb-21 19:31N 35°27' E 139°41'0 0.0
2015-Feb-21 18:31N 35°27' E 139°41'0 0.0
2015-Feb-21 17:31N 35°27' E 139°41'0 0.0
2015-Feb-21 16:31N 35°27' E 139°41'0 0.0
2015-Feb-21 15:31N 35°27' E 139°41'0 0.0
2015-Feb-21 14:31N 35°27' E 139°41'0 0.0
2015-Feb-21 13:31N 35°27' E 139°41'0 0.0
2015-Feb-21 12:31N 35°27' E 139°41'0 0.0
2015-Feb-21 11:31N 35°27' E 139°41'0 0.0
2015-Feb-21 10:31N 35°27' E 139°41'0 0.0
2015-Feb-21 09:31N 35°27' E 139°41'0 0.0
2015-Feb-21 08:31N 35°27' E 139°41'0 0.0
2015-Feb-21 07:31N 35°27' E 139°41'0 0.0
2015-Feb-21 06:31N 35°27' E 139°41'0 0.0
2015-Feb-21 05:31N 35°27' E 139°41'0 0.0
2015-Feb-21 04:31N 35°27' E 139°41'0 0.0
2015-Feb-21 03:31N 35°27' E 139°41'0 0.0
2015-Feb-21 02:31N 35°27' E 139°41'0 0.0
2015-Feb-21 01:31N 35°27' E 139°41'0 0.0
2015-Feb-21 00:31N 35°27' E 139°41'0 0.0
2015-Feb-20 23:31N 35°27' E 139°41'0 0.0
2015-Feb-20 22:31N 35°27' E 139°41'1 1.5
2015-Feb-20 21:34N 35°26' E 139°42'1 1.0
2015-Feb-20 20:32N 35°25' E 139°42'0 0.0
2015-Feb-20 19:32N 35°25' E 139°42'0 0.0
2015-Feb-20 18:29N 35°25' E 139°42'0 0.1
2015-Feb-20 17:32N 35°25' E 139°42'0 0.0
2015-Feb-20 16:32N 35°25' E 139°42'0 0.0
2015-Feb-20 15:32N 35°25' E 139°42'0 0.0
2015-Feb-20 14:32N 35°25' E 139°42'0 0.0
2015-Feb-20 13:32N 35°25' E 139°42'1 0.9
2015-Feb-20 12:33N 35°25' E 139°43'8 8.3
2015-Feb-20 11:33N 35°17' E 139°46'1010.1
2015-Feb-20 10:33N 35°07' E 139°46'9 8.8
2015-Feb-20 09:34N 34°59' E 139°42'  

Dump ship's entire track history